Time;durP1;ratioP1;P1;durP2;ratioP2;P2;SDS_P1;SDS_P2;PMS_P1;PMS_P2;Temp;Humidity;BMP_temperature;BMP_pressure;BME280_temperature;BME280_humidity;BME280_pressure;Samples;Min_cycle;Max_cycle;Signal;HPM_P1;HPM_P2
2022/07/03 00:00:02;;;;;;;4.35;3.25;;;16.30;99.90;;;;;;5074303;28;20404;-64
2022/07/03 00:02:37;;;;;;;4.93;3.30;;;16.30;99.90;;;;;;5076876;28;20044;-64
2022/07/03 00:05:04;;;;;;;4.55;2.95;;;16.20;99.90;;;;;;5077942;28;20123;-64
2022/07/03 00:07:31;;;;;;;4.88;2.72;;;16.20;99.90;;;;;;5062969;28;20037;-64
2022/07/03 00:09:58;;;;;;;5.32;3.00;;;16.10;99.90;;;;;;5072502;28;20044;-64
2022/07/03 00:12:25;;;;;;;6.25;3.30;;;16.10;99.90;;;;;;5068149;28;20443;-64
2022/07/03 00:14:52;;;;;;;2.63;2.40;;;16.00;99.90;;;;;;5067284;28;20040;-65
2022/07/03 00:17:19;;;;;;;7.25;2.70;;;15.90;99.90;;;;;;5071728;28;20047;-65
2022/07/03 00:19:45;;;;;;;5.93;3.38;;;15.80;99.90;;;;;;5074002;28;20586;-65
2022/07/03 00:22:13;;;;;;;4.88;2.83;;;15.80;99.90;;;;;;5070364;28;20045;-65
2022/07/03 00:24:52;;;;;;;5.13;3.17;;;15.80;99.90;;;;;;5075615;28;20052;-65
2022/07/03 00:27:23;;;;;;;4.57;2.67;;;15.80;99.90;;;;;;5062590;28;20037;-65
2022/07/03 00:29:53;;;;;;;2.95;2.33;;;15.80;99.90;;;;;;5075389;28;20515;-65
2022/07/03 00:32:23;;;;;;;5.40;2.65;;;15.80;99.90;;;;;;5067098;28;20037;-65
2022/07/03 00:34:52;;;;;;;2.90;2.60;;;15.80;99.90;;;;;;5074805;28;20048;-65
2022/07/03 00:37:19;;;;;;;4.57;3.95;;;15.80;99.90;;;;;;5080237;28;20044;-64
2022/07/03 00:39:48;;;;;;;6.97;2.80;;;15.80;99.90;;;;;;5076948;28;20041;-65
2022/07/03 00:42:15;;;;;;;6.07;2.67;;;15.80;99.90;;;;;;5066769;28;20033;-65
2022/07/03 00:44:51;;;;;;;4.05;2.60;;;15.70;99.90;;;;;;5079701;28;20401;-65
2022/07/03 00:47:20;;;;;;;4.85;2.80;;;15.60;99.90;;;;;;5085197;28;20046;-65
2022/07/03 00:49:50;;;;;;;3.75;2.38;;;15.60;99.90;;;;;;5074233;28;20655;-65
2022/07/03 00:52:19;;;;;;;4.03;2.47;;;15.60;99.90;;;;;;5078522;28;20515;-65
2022/07/03 00:54:55;;;;;;;3.60;2.90;;;15.60;99.90;;;;;;5084190;28;20040;-65
2022/07/03 00:57:24;;;;;;;3.67;2.90;;;15.70;99.90;;;;;;5080091;28;20043;-65
2022/07/03 00:59:51;;;;;;;5.80;3.17;;;15.70;99.90;;;;;;5071274;28;20044;-65
2022/07/03 01:02:34;;;;;;;6.13;3.15;;;15.70;99.90;;;;;;5084575;28;20040;-65
2022/07/03 01:05:11;;;;;;;3.67;3.30;;;15.70;99.90;;;;;;5081175;28;20040;-65
2022/07/03 01:07:48;;;;;;;3.92;3.28;;;15.70;99.90;;;;;;5070362;28;20048;-65
2022/07/03 01:10:34;;;;;;;4.32;2.78;;;15.60;99.90;;;;;;5075393;28;20042;-65
2022/07/03 01:13:10;;;;;;;3.00;2.70;;;15.60;99.90;;;;;;5069351;28;20039;-65
2022/07/03 01:15:59;;;;;;;4.10;2.97;;;15.60;99.90;;;;;;5069342;28;20506;-65
2022/07/03 01:18:48;;;;;;;6.70;2.78;;;15.60;99.90;;;;;;5074805;28;20408;-65
2022/07/03 01:21:36;;;;;;;4.18;2.50;;;15.60;99.90;;;;;;5072927;28;20037;-65
2022/07/03 01:24:11;;;;;;;4.88;2.67;;;15.60;99.90;;;;;;5064425;28;20056;-65
2022/07/03 01:26:40;;;;;;;3.35;2.80;;;15.60;99.90;;;;;;5082320;28;20094;-65
2022/07/03 01:29:13;;;;;;;3.13;2.20;;;15.60;99.90;;;;;;5093389;28;20048;-65
2022/07/03 01:31:42;;;;;;;3.00;2.70;;;15.60;99.90;;;;;;5091042;28;20051;-65
2022/07/03 01:34:14;;;;;;;5.30;2.67;;;15.70;99.90;;;;;;5081111;28;20042;-65
2022/07/03 01:36:42;;;;;;;5.13;2.50;;;15.70;99.90;;;;;;5090210;28;20495;-65
2022/07/03 01:39:11;;;;;;;4.75;2.45;;;15.60;99.90;;;;;;5093126;28;20051;-65
2022/07/03 01:41:44;;;;;;;5.32;2.95;;;15.50;99.90;;;;;;5084082;28;20055;-65
2022/07/03 01:44:14;;;;;;;3.53;3.08;;;15.50;99.90;;;;;;5085817;28;20036;-65
2022/07/03 01:46:45;;;;;;;7.00;3.63;;;15.40;99.90;;;;;;5093225;28;20496;-65
2022/07/03 01:49:15;;;;;;;6.35;2.97;;;15.40;99.90;;;;;;5079771;28;20041;-65
2022/07/03 01:51:43;;;;;;;6.00;3.20;;;15.30;99.90;;;;;;5073008;28;20047;-65
2022/07/03 01:54:11;;;;;;;3.88;2.88;;;15.30;99.90;;;;;;5092822;28;20040;-65
2022/07/03 01:56:37;;;;;;;5.82;2.85;;;15.30;99.90;;;;;;5092979;28;20048;-65
2022/07/03 01:59:04;;;;;;;7.03;4.47;;;15.30;99.90;;;;;;5077902;28;20047;-65
2022/07/03 02:01:39;;;;;;;8.85;2.78;;;15.40;99.90;;;;;;5082320;28;20051;-65
2022/07/03 02:04:30;;;;;;;5.18;3.47;;;15.40;99.90;;;;;;5092747;28;20062;-65
2022/07/03 02:07:08;;;;;;;2.85;2.63;;;15.40;99.90;;;;;;5083481;28;20130;-65
2022/07/03 02:09:40;;;;;;;;;;;15.50;99.90;;;;;;5089277;28;20409;-65
2022/07/03 02:12:12;;;;;;;3.80;2.70;;;15.50;99.90;;;;;;5092181;28;19920;-65
2022/07/03 02:14:45;;;;;;;6.07;3.67;;;15.50;99.90;;;;;;5075942;28;20064;-65
2022/07/03 02:17:21;;;;;;;5.22;2.92;;;15.50;99.90;;;;;;5083139;28;20055;-65
2022/07/03 02:19:53;;;;;;;3.78;3.10;;;15.50;99.90;;;;;;5092208;28;20059;-65
2022/07/03 02:22:26;;;;;;;3.20;2.90;;;15.50;99.90;;;;;;5092453;28;20044;-65
2022/07/03 02:25:02;;;;;;;5.15;3.15;;;15.60;99.90;;;;;;5083807;28;20044;-65
2022/07/03 02:27:38;;;;;;;2.58;2.38;;;15.50;99.90;;;;;;5087399;28;20040;-65
2022/07/03 02:30:06;;;;;;;3.38;2.67;;;15.50;99.90;;;;;;5091718;28;20047;-65
2022/07/03 02:32:39;;;;;;;3.30;2.67;;;15.40;99.90;;;;;;5092303;28;20497;-65
2022/07/03 02:35:28;;;;;;;3.50;3.00;;;15.40;99.90;;;;;;5080266;22;20040;-69
2022/07/03 02:38:16;;;;;;;6.85;3.15;;;15.40;99.90;;;;;;5071130;28;20051;-69
2022/07/03 02:41:03;;;;;;;3.40;3.05;;;15.30;99.90;;;;;;5053769;28;20090;-69
2022/07/03 02:43:54;;;;;;;3.80;3.20;;;15.30;99.90;;;;;;5078089;28;20036;-69
2022/07/03 02:46:49;;;;;;;5.60;3.55;;;15.30;99.90;;;;;;5060067;28;20052;-69
2022/07/03 02:49:19;;;;;;;5.60;3.20;;;15.30;99.90;;;;;;5071541;28;20127;-69
2022/07/03 02:52:02;;;;;;;4.78;3.30;;;15.30;99.90;;;;;;5063192;28;20037;-69
2022/07/03 02:54:37;;;;;;;7.43;3.47;;;15.30;99.90;;;;;;5066797;28;20051;-69
2022/07/03 02:57:08;;;;;;;6.80;3.60;;;15.30;99.90;;;;;;5071600;28;20059;-69
2022/07/03 02:59:56;;;;;;;5.53;3.40;;;15.30;99.90;;;;;;5062935;28;20489;-68
2022/07/03 03:02:32;;;;;;;;;;;15.30;99.90;;;;;;5046587;28;20044;-68
2022/07/03 03:05:08;;;;;;;3.38;3.08;;;15.30;99.90;;;;;;5051379;28;19925;-68
2022/07/03 03:07:39;;;;;;;6.72;3.45;;;15.30;99.90;;;;;;5050962;28;20041;-68
2022/07/03 03:10:08;;;;;;;6.20;3.28;;;15.30;99.90;;;;;;5050913;28;20045;-68
2022/07/03 03:12:37;;;;;;;7.25;3.85;;;15.30;99.90;;;;;;5051375;28;20049;-68
2022/07/03 03:15:05;;;;;;;5.97;3.28;;;15.30;99.90;;;;;;5051260;28;20433;-68
2022/07/03 03:17:53;;;;;;;4.15;3.20;;;15.30;99.90;;;;;;5050733;28;20378;-68
2022/07/03 03:20:22;;;;;;;;;;;15.20;99.90;;;;;;5032738;28;20049;-68
2022/07/03 03:23:07;;;;;;;;;;;15.20;99.90;;;;;;5051653;28;19975;-69
2022/07/03 03:25:34;;;;;;;5.90;3.42;;;15.20;99.90;;;;;;5051256;28;20324;-68
2022/07/03 03:28:14;;;;;;;6.30;3.90;;;15.20;99.90;;;;;;5050169;28;20029;-68
2022/07/03 03:30:41;;;;;;;5.55;3.90;;;15.20;99.90;;;;;;5050927;28;20041;-68
2022/07/03 03:33:10;;;;;;;5.00;3.83;;;15.20;99.90;;;;;;5051391;28;20120;-68
2022/07/03 03:35:37;;;;;;;6.18;3.58;;;15.20;99.90;;;;;;5050623;28;20128;-68
2022/07/03 03:38:05;;;;;;;6.07;3.80;;;15.20;99.90;;;;;;5044684;28;20045;-68
2022/07/03 03:40:33;;;;;;;4.47;3.40;;;15.30;99.90;;;;;;5050634;28;20068;-68
2022/07/03 03:43:01;;;;;;;4.18;3.53;;;15.30;99.90;;;;;;5050720;28;20056;-68
2022/07/03 03:45:29;;;;;;;5.55;3.15;;;15.30;99.90;;;;;;5059260;28;20048;-68
2022/07/03 03:47:56;;;;;;;;;;;15.30;99.90;;;;;;5070596;28;20036;-68
2022/07/03 03:50:23;;;;;;;5.80;3.70;;;15.40;99.90;;;;;;5070789;28;19942;-68
2022/07/03 03:52:50;;;;;;;9.70;3.80;;;15.50;99.90;;;;;;5043825;28;20059;-68
2022/07/03 03:55:16;;;;;;;13.10;4.45;;;15.60;99.90;;;;;;5064540;28;20044;-68
2022/07/03 03:57:43;;;;;;;7.85;3.60;;;15.60;99.90;;;;;;5071269;28;20041;-68
2022/07/03 04:00:10;;;;;;;5.00;3.55;;;15.70;99.90;;;;;;5063259;28;20040;-68
2022/07/03 04:02:40;;;;;;;4.18;2.92;;;15.70;99.90;;;;;;5068156;28;20448;-68
2022/07/03 04:05:07;;;;;;;3.47;2.70;;;15.70;99.90;;;;;;5071020;28;20051;-68
2022/07/03 04:07:34;;;;;;;6.60;3.10;;;15.60;99.90;;;;;;5071052;28;20044;-68
2022/07/03 04:10:01;;;;;;;4.82;3.33;;;15.60;99.90;;;;;;5052860;28;20405;-68
2022/07/03 04:12:28;;;;;;;5.32;3.17;;;15.60;99.90;;;;;;5050902;28;20051;-68
2022/07/03 04:14:57;;;;;;;3.00;2.70;;;15.60;99.90;;;;;;5050912;28;20045;-68
2022/07/03 04:17:24;;;;;;;4.25;3.22;;;15.60;99.90;;;;;;5051010;28;20045;-68
2022/07/03 04:19:51;;;;;;;3.50;3.20;;;15.60;99.90;;;;;;5049804;28;20048;-68
2022/07/03 04:22:18;;;;;;;7.50;3.20;;;15.70;99.90;;;;;;5050572;28;20037;-68
2022/07/03 04:24:44;;;;;;;5.47;3.28;;;15.80;99.90;;;;;;5050773;28;20053;-68
2022/07/03 04:27:11;;;;;;;7.78;3.60;;;15.80;99.90;;;;;;5050204;28;20044;-68
2022/07/03 04:29:38;;;;;;;5.15;3.35;;;15.90;99.90;;;;;;5050725;28;20401;-68
2022/07/03 04:32:05;;;;;;;4.47;3.03;;;15.90;99.90;;;;;;5050539;28;20424;-68
2022/07/03 04:34:32;;;;;;;4.85;2.53;;;15.80;99.90;;;;;;5050607;28;20405;-68
2022/07/03 04:36:58;;;;;;;5.03;3.08;;;15.80;99.90;;;;;;5050020;28;20041;-68
2022/07/03 04:39:25;;;;;;;5.88;3.20;;;15.80;99.90;;;;;;5052050;28;20044;-69
2022/07/03 04:41:52;;;;;;;5.07;3.10;;;15.80;99.90;;;;;;5047808;28;20048;-68
2022/07/03 04:44:19;;;;;;;6.55;3.35;;;15.80;99.90;;;;;;5072267;28;20045;-68
2022/07/03 04:46:45;;;;;;;5.28;3.28;;;15.80;99.90;;;;;;5056518;28;20563;-68
2022/07/03 04:49:12;;;;;;;7.18;3.30;;;15.80;99.90;;;;;;5054150;28;20056;-68
2022/07/03 04:51:39;;;;;;;11.40;3.42;;;15.80;99.90;;;;;;5053755;28;20052;-68
2022/07/03 04:54:06;;;;;;;3.83;3.10;;;15.80;99.90;;;;;;5053399;28;20045;-68
2022/07/03 04:56:32;;;;;;;6.72;3.38;;;15.80;99.90;;;;;;5054015;28;20041;-68
2022/07/03 04:58:59;;;;;;;4.10;2.72;;;15.80;99.90;;;;;;5054114;28;20044;-68
2022/07/03 05:01:26;;;;;;;3.75;2.90;;;15.90;99.90;;;;;;5052460;28;20056;-68
2022/07/03 05:03:53;;;;;;;4.78;3.33;;;15.90;99.90;;;;;;5053075;28;20048;-68
2022/07/03 05:06:19;;;;;;;3.50;2.40;;;16.00;99.90;;;;;;5052977;28;20041;-68
2022/07/03 05:08:46;;;;;;;7.38;2.58;;;16.00;99.90;;;;;;5053712;28;20040;-68
2022/07/03 05:11:13;;;;;;;6.88;2.30;;;16.00;99.90;;;;;;5053449;28;20052;-68
2022/07/03 05:13:40;;;;;;;3.85;2.38;;;16.00;99.90;;;;;;5073817;28;20047;-68
2022/07/03 05:16:06;;;;;;;3.47;2.58;;;16.10;99.90;;;;;;5043167;28;20053;-68
2022/07/03 05:18:34;;;;;;;3.60;2.75;;;16.10;99.90;;;;;;5061134;28;20040;-68
2022/07/03 05:21:02;;;;;;;4.88;2.50;;;16.20;99.90;;;;;;5073240;28;20044;-67
2022/07/03 05:23:29;;;;;;;4.55;2.25;;;16.20;99.90;;;;;;5071380;28;20047;-67
2022/07/03 05:25:55;;;;;;;2.42;2.22;;;16.20;99.90;;;;;;5060361;28;20501;-68
2022/07/03 05:28:22;;;;;;;5.03;2.33;;;16.10;99.90;;;;;;5053281;28;20528;-68
2022/07/03 05:30:49;;;;;;;12.95;2.53;;;16.10;99.90;;;;;;5053038;28;20068;-68
2022/07/03 05:33:16;;;;;;;4.70;2.78;;;16.20;99.90;;;;;;5057787;28;20428;-68
2022/07/03 05:35:43;;;;;;;4.03;2.50;;;16.50;99.90;;;;;;5064577;28;20045;-68
2022/07/03 05:38:09;;;;;;;4.32;3.55;;;16.80;99.90;;;;;;5073454;28;20044;-68
2022/07/03 05:40:36;;;;;;;5.18;4.28;;;16.90;99.90;;;;;;5069008;28;20401;-68
2022/07/03 05:43:03;;;;;;;6.68;4.03;;;16.90;99.90;;;;;;5044696;28;20082;-68
2022/07/03 05:45:30;;;;;;;6.90;4.25;;;16.90;99.90;;;;;;5052907;28;20053;-68
2022/07/03 05:47:56;;;;;;;4.10;3.72;;;17.00;99.90;;;;;;5052685;28;20524;-68
2022/07/03 05:50:23;;;;;;;5.93;4.40;;;17.00;99.90;;;;;;5051129;28;20041;-68
2022/07/03 05:52:50;;;;;;;11.02;4.88;;;17.00;99.90;;;;;;5052755;28;20053;-68
2022/07/03 05:55:16;;;;;;;9.57;5.07;;;17.00;99.90;;;;;;5072573;28;20045;-68
2022/07/03 05:57:43;;;;;;;8.95;4.65;;;17.00;99.90;;;;;;5052801;28;20037;-68
2022/07/03 06:00:11;;;;;;;6.38;4.50;;;17.10;99.90;;;;;;5052467;28;20049;-68
2022/07/03 06:02:37;;;;;;;5.80;4.78;;;17.20;99.90;;;;;;5052718;28;20037;-68
2022/07/03 06:05:04;;;;;;;4.70;4.20;;;17.30;99.90;;;;;;5052204;28;20056;-68
2022/07/03 06:07:31;;;;;;;9.85;4.65;;;17.50;99.90;;;;;;5052540;28;20041;-68
2022/07/03 06:09:58;;;;;;;5.25;4.68;;;17.60;99.90;;;;;;5052174;28;20045;-68
2022/07/03 06:12:25;;;;;;;5.25;4.50;;;17.70;99.90;;;;;;5072473;28;20056;-68
2022/07/03 06:14:51;;;;;;;7.72;4.13;;;17.80;99.90;;;;;;5068003;28;20262;-68
2022/07/03 06:17:18;;;;;;;5.85;4.20;;;17.90;99.90;;;;;;5052366;28;20068;-68
2022/07/03 06:19:45;;;;;;;5.30;4.28;;;18.00;99.90;;;;;;5052438;28;20049;-68
2022/07/03 06:22:12;;;;;;;5.00;4.35;;;18.10;99.90;;;;;;5072003;28;20048;-68
2022/07/03 06:24:39;;;;;;;7.18;3.55;;;18.20;99.90;;;;;;5065777;28;20045;-69
2022/07/03 06:27:06;;;;;;;4.53;3.83;;;18.40;99.90;;;;;;5052028;28;20056;-69
2022/07/03 06:29:32;;;;;;;7.30;3.55;;;18.50;99.90;;;;;;5052392;28;20409;-68
2022/07/03 06:31:59;;;;;;;5.28;4.05;;;18.60;99.90;;;;;;5051904;28;20591;-69
2022/07/03 06:34:26;;;;;;;;;;;18.70;99.90;;;;;;5051826;28;20091;-69
2022/07/03 06:36:53;;;;;;;4.65;3.20;;;19.00;99.90;;;;;;5052153;28;19936;-69
2022/07/03 06:39:20;;;;;;;5.70;3.08;;;18.90;99.90;;;;;;5052188;28;20041;-69
2022/07/03 06:41:46;;;;;;;5.78;3.40;;;19.00;99.90;;;;;;5068113;28;20101;-69
2022/07/03 06:44:13;;;;;;;3.20;2.88;;;19.00;99.90;;;;;;5051919;28;20112;-69
2022/07/03 06:46:40;;;;;;;3.65;3.35;;;18.90;99.90;;;;;;5052046;28;20033;-69
2022/07/03 06:49:07;;;;;;;3.92;2.90;;;19.00;99.90;;;;;;5071759;28;20059;-69
2022/07/03 06:51:33;;;;;;;7.90;3.47;;;19.20;99.90;;;;;;5067541;28;20056;-69
2022/07/03 06:54:00;;;;;;;4.95;3.08;;;19.40;99.90;;;;;;5057784;28;20079;-69
2022/07/03 06:56:27;;;;;;;4.70;3.78;;;19.60;99.90;;;;;;5051796;28;20041;-69
2022/07/03 06:58:57;;;;;;;4.78;3.50;;;19.90;99.90;;;;;;5051880;28;20048;-69
2022/07/03 07:01:23;;;;;;;4.90;3.30;;;20.20;99.90;;;;;;5058404;28;20091;-69
2022/07/03 07:03:50;;;;;;;4.85;3.40;;;20.30;99.90;;;;;;5052821;28;20094;-69
2022/07/03 07:06:17;;;;;;;4.45;3.70;;;20.40;99.90;;;;;;5051644;28;20052;-69
2022/07/03 07:08:44;;;;;;;3.05;2.75;;;20.40;99.90;;;;;;5071677;28;20040;-69
2022/07/03 07:11:11;;;;;;;4.53;3.65;;;20.50;99.90;;;;;;5051984;28;20406;-69
2022/07/03 07:13:38;;;;;;;5.47;3.45;;;20.60;99.90;;;;;;5067986;28;20044;-69
2022/07/03 07:16:05;;;;;;;3.70;3.40;;;20.80;99.90;;;;;;5071408;28;20037;-69
2022/07/03 07:18:32;;;;;;;;;;;20.70;99.90;;;;;;5062137;28;20562;-69
2022/07/03 07:20:58;;;;;;;3.35;3.05;;;20.90;99.90;;;;;;5050209;28;19974;-69
2022/07/03 07:23:25;;;;;;;3.88;3.33;;;21.00;99.90;;;;;;5051355;28;20045;-69
2022/07/03 07:25:52;;;;;;;3.25;2.95;;;21.10;99.90;;;;;;5051298;28;20766;-69
2022/07/03 07:28:19;;;;;;;4.55;3.47;;;21.10;99.90;;;;;;5049366;28;20045;-69
2022/07/03 07:30:46;;;;;;;4.82;3.08;;;21.30;99.90;;;;;;5053589;28;20041;-69
2022/07/03 07:33:12;;;;;;;6.70;3.22;;;21.40;99.90;;;;;;5062831;28;20049;-69
2022/07/03 07:35:39;;;;;;;4.88;2.83;;;21.50;99.90;;;;;;5071286;28;20040;-69
2022/07/03 07:38:06;;;;;;;3.38;3.08;;;21.70;99.90;;;;;;5071301;28;20032;-69
2022/07/03 07:40:35;;;;;;;6.78;3.10;;;21.90;99.90;;;;;;5057528;28;20094;-69
2022/07/03 07:43:02;;;;;;;5.15;3.42;;;21.90;99.90;;;;;;5051014;28;20490;-69
2022/07/03 07:45:29;;;;;;;;;;;21.90;99.90;;;;;;5051652;28;20041;-69
2022/07/03 07:47:56;;;;;;;4.72;3.05;;;22.00;99.90;;;;;;5067252;28;19929;-69
2022/07/03 07:50:23;;;;;;;;;;;22.10;99.90;;;;;;5059268;28;20051;-68
2022/07/03 07:52:49;;;;;;;3.55;2.75;;;22.20;99.90;;;;;;5068933;28;19931;-69
2022/07/03 07:55:16;;;;;;;3.70;2.60;;;22.40;99.90;;;;;;5071218;28;20119;-69
2022/07/03 07:57:45;;;;;;;3.10;2.80;;;22.40;99.90;;;;;;5062163;28;20036;-68
2022/07/03 08:00:14;;;;;;;5.20;3.22;;;22.40;99.90;;;;;;5050408;28;20053;-69
2022/07/03 08:05:38;;;;;;;3.40;2.42;;;22.60;99.90;;;;;;5055494;28;20045;-68
2022/07/03 08:08:23;;;;;;;3.10;2.58;;;22.80;99.90;;;;;;5055059;28;20433;-68
2022/07/03 08:10:50;;;;;;;3.03;2.50;;;23.00;99.90;;;;;;5070666;28;20098;-69
2022/07/03 08:13:19;;;;;;;4.47;3.05;;;23.10;99.90;;;;;;5053919;28;20048;-69
2022/07/03 08:15:49;;;;;;;3.08;2.83;;;23.30;99.90;;;;;;5033084;28;20429;-69
2022/07/03 08:18:16;;;;;;;2.80;2.58;;;23.40;99.90;;;;;;5054120;28;20049;-69
2022/07/03 08:20:43;;;;;;;2.88;2.67;;;23.50;99.90;;;;;;5052883;28;20041;-69
2022/07/03 08:23:09;;;;;;;3.67;2.75;;;23.60;99.90;;;;;;5051032;28;20037;-69
2022/07/03 08:25:36;;;;;;;3.85;2.97;;;23.50;99.90;;;;;;5053929;28;20037;-69
2022/07/03 08:28:03;;;;;;;4.28;3.22;;;23.70;99.90;;;;;;5053666;28;20037;-69
2022/07/03 08:30:30;;;;;;;6.38;3.05;;;23.80;99.90;;;;;;5047021;28;20044;-69
2022/07/03 08:32:58;;;;;;;2.58;2.38;;;23.90;99.90;;;;;;5052843;28;20045;-69
2022/07/03 08:35:25;;;;;;;3.10;2.80;;;23.80;99.90;;;;;;5050171;22;20412;-63
2022/07/03 08:37:52;;;;;;;7.10;2.83;;;23.90;99.90;;;;;;5050962;28;20045;-64
2022/07/03 08:40:20;;;;;;;4.55;2.75;;;23.80;99.90;;;;;;5053147;28;20052;-66
2022/07/03 08:42:49;;;;;;;5.68;2.80;;;23.80;99.90;;;;;;5053577;28;20148;-63
2022/07/03 08:45:17;;;;;;;3.08;2.78;;;23.90;99.90;;;;;;5042684;28;20369;-64
2022/07/03 08:47:46;;;;;;;4.57;2.80;;;23.80;99.90;;;;;;5065858;28;20055;-64
2022/07/03 08:50:15;;;;;;;3.15;2.85;;;24.00;99.90;;;;;;5062924;28;20037;-64
2022/07/03 08:52:43;;;;;;;2.78;2.58;;;24.10;99.90;;;;;;5062917;28;20059;-63
2022/07/03 08:55:11;;;;;;;4.93;2.90;;;24.30;99.90;;;;;;5064255;28;20032;-63
2022/07/03 08:57:42;;;;;;;3.95;3.05;;;24.40;99.90;;;;;;5072400;28;20047;-64
2022/07/03 09:00:12;;;;;;;3.20;2.60;;;24.50;99.90;;;;;;5073544;28;20039;-63
2022/07/03 09:02:43;;;;;;;8.10;3.00;;;24.50;99.90;;;;;;5072047;28;20044;-63
2022/07/03 09:05:14;;;;;;;6.00;2.80;;;24.60;99.90;;;;;;5062593;28;20671;-64
2022/07/03 09:07:43;;;;;;;6.22;2.45;;;24.60;99.90;;;;;;5070610;28;20052;-64
2022/07/03 09:10:15;;;;;;;2.53;2.30;;;24.70;99.90;;;;;;5073295;28;20084;-63
2022/07/03 09:12:48;;;;;;;2.80;2.60;;;24.90;99.90;;;;;;5073528;28;20516;-64
2022/07/03 09:15:15;;;;;;;3.20;2.67;;;24.90;99.90;;;;;;5067241;28;20048;-63
2022/07/03 09:18:06;;;;;;;5.18;2.67;;;25.10;99.90;;;;;;5052705;28;20036;-63
2022/07/03 09:20:35;;;;;;;3.22;2.65;;;25.10;99.90;;;;;;5069285;28;20040;-64
2022/07/03 09:23:14;;;;;;;4.30;2.88;;;25.20;99.90;;;;;;5045385;28;20041;-63
2022/07/03 09:25:56;;;;;;;3.25;2.30;;;25.40;99.90;;;;;;5053070;28;20080;-64
2022/07/03 09:28:40;;;;;;;4.22;2.22;;;25.50;99.90;;;;;;5048931;28;20045;-64
2022/07/03 09:31:07;;;;;;;2.70;2.40;;;25.50;99.90;;;;;;5070455;28;20405;-64
2022/07/03 09:33:33;;;;;;;;;;;25.50;99.90;;;;;;5058862;28;20056;-64
2022/07/03 09:36:00;;;;;;;3.33;2.10;;;25.60;99.90;;;;;;5034747;28;20340;-64
2022/07/03 09:38:27;;;;;;;3.17;2.10;;;25.80;99.90;;;;;;5053115;28;20483;-64
2022/07/03 09:40:56;;;;;;;2.92;1.90;;;25.90;99.90;;;;;;5063057;28;20055;-65
2022/07/03 09:43:28;;;;;;;2.22;2.00;;;25.90;99.90;;;;;;5067547;28;20090;-65
2022/07/03 09:45:58;;;;;;;3.08;1.83;;;26.10;99.90;;;;;;5072999;28;20492;-65
2022/07/03 09:48:34;;;;;;;3.92;2.33;;;26.10;99.90;;;;;;5071825;28;20505;-65
2022/07/03 09:51:23;;;;;;;4.05;2.05;;;26.20;99.90;;;;;;5042591;28;20041;-64
2022/07/03 09:53:53;;;;;;;2.13;1.90;;;26.20;99.90;;;;;;5049265;28;20135;-64
2022/07/03 09:56:35;;;;;;;2.65;2.13;;;26.20;99.90;;;;;;5072745;28;20083;-64
2022/07/03 09:59:07;;;;;;;3.08;2.22;;;26.20;99.90;;;;;;5068395;28;20048;-64
2022/07/03 10:01:42;;;;;;;3.88;2.42;;;26.30;99.90;;;;;;5068550;28;20136;-65
2022/07/03 10:04:16;;;;;;;4.70;2.03;;;26.50;99.90;;;;;;5064014;28;20040;-65
2022/07/03 10:06:50;;;;;;;2.22;2.10;;;26.70;99.90;;;;;;5069973;28;20043;-65
2022/07/03 10:09:23;;;;;;;2.10;1.88;;;26.80;99.90;;;;;;5067696;28;20063;-65
2022/07/03 10:11:50;;;;;;;2.25;2.05;;;26.90;99.90;;;;;;5067672;28;20049;-64
2022/07/03 10:14:19;;;;;;;3.00;1.48;;;27.00;99.90;;;;;;5058700;28;20110;-65
2022/07/03 10:16:47;;;;;;;3.55;1.80;;;27.10;99.90;;;;;;5071185;28;20036;-65
2022/07/03 10:19:23;;;;;;;2.75;1.55;;;27.10;99.90;;;;;;5072136;28;20048;-65
2022/07/03 10:21:56;;;;;;;4.82;1.55;;;26.90;99.90;;;;;;5065777;28;20067;-65
2022/07/03 10:24:25;;;;;;;2.65;1.30;;;26.90;99.90;;;;;;5071978;28;20111;-64
2022/07/03 10:26:53;;;;;;;1.38;1.25;;;27.00;99.90;;;;;;5058184;28;20036;-65
2022/07/03 10:29:22;;;;;;;1.90;1.60;;;27.10;99.90;;;;;;5052985;28;20040;-64
2022/07/03 10:31:55;;;;;;;2.47;1.45;;;27.20;99.90;;;;;;5071430;28;20127;-65
2022/07/03 10:34:24;;;;;;;1.98;1.40;;;27.30;99.90;;;;;;5069588;28;20032;-65
2022/07/03 10:36:56;;;;;;;2.85;1.30;;;27.50;99.90;;;;;;5064913;28;20032;-65
2022/07/03 10:39:35;;;;;;;1.58;1.48;;;27.50;99.90;;;;;;5061794;28;20045;-65
2022/07/03 10:45:11;;;;;;;1.67;1.10;;;27.70;99.90;;;;;;5069858;28;20413;-65
2022/07/03 10:47:39;;;;;;;2.97;1.40;;;27.90;99.90;;;;;;5060894;28;20055;-65
2022/07/03 10:50:17;;;;;;;4.28;1.25;;;27.70;99.90;;;;;;5068003;28;20040;-65
2022/07/03 10:52:44;;;;;;;1.27;1.10;;;27.60;99.90;;;;;;5071063;28;20047;-65
2022/07/03 10:55:13;;;;;;;1.40;1.30;;;27.60;99.90;;;;;;5071440;28;20036;-64
2022/07/03 10:57:42;;;;;;;1.73;0.98;;;27.60;99.90;;;;;;5064381;28;20050;-64
2022/07/03 11:00:14;;;;;;;1.60;1.50;;;27.70;99.90;;;;;;5070952;28;20041;-64
2022/07/03 11:02:43;;;;;;;1.20;1.20;;;27.90;99.90;;;;;;5053236;28;20072;-65
2022/07/03 11:05:19;;;;;;;1.20;1.10;;;28.00;99.90;;;;;;5065685;28;20041;-64
2022/07/03 11:07:55;;;;;;;1.73;1.13;;;27.90;99.90;;;;;;5070443;28;20036;-64
2022/07/03 11:10:25;;;;;;;2.30;1.10;;;27.80;99.90;;;;;;5070993;28;20054;-64
2022/07/03 11:12:57;;;;;;;1.50;1.20;;;27.70;99.90;;;;;;5066273;28;20525;-64
2022/07/03 11:15:50;;;;;;;2.15;1.35;;;27.60;99.90;;;;;;5063690;28;20048;-65
2022/07/03 11:18:23;;;;;;;3.20;1.58;;;27.70;99.90;;;;;;5059483;28;20056;-64
2022/07/03 11:20:50;;;;;;;1.25;1.15;;;27.70;99.90;;;;;;5070701;28;20044;-64
2022/07/03 11:23:27;;;;;;;2.28;1.20;;;27.80;99.90;;;;;;5071107;28;20044;-64
2022/07/03 11:25:54;;;;;;;;;;;27.80;99.80;;;;;;5070253;28;20048;-64
2022/07/03 11:28:33;;;;;;;1.50;1.27;;;27.70;99.50;;;;;;5071161;28;19924;-64
2022/07/03 11:33:47;;;;;;;2.67;1.45;;;27.80;99.30;;;;;;5069990;28;20040;-65
2022/07/03 11:36:16;;;;;;;1.30;0.98;;;27.90;99.90;;;;;;5066955;28;20037;-65
2022/07/03 11:38:55;;;;;;;3.92;1.30;;;28.00;99.50;;;;;;5070262;28;20111;-64
2022/07/03 11:41:23;;;;;;;1.67;1.30;;;28.00;99.10;;;;;;5070557;28;20036;-65
2022/07/03 11:43:58;;;;;;;1.13;1.00;;;28.10;99.90;;;;;;5068062;28;20044;-64
2022/07/03 11:46:26;;;;;;;2.45;1.30;;;28.10;98.80;;;;;;5065942;28;20041;-65
2022/07/03 11:49:07;;;;;;;3.20;1.10;;;28.00;98.70;;;;;;5071730;28;20041;-64
2022/07/03 11:51:34;;;;;;;2.85;1.10;;;28.00;99.60;;;;;;5072445;28;20421;-65
2022/07/03 11:54:02;;;;;;;1.85;1.40;;;28.10;99.70;;;;;;5063262;28;20116;-65
2022/07/03 11:56:29;;;;;;;0.80;0.80;;;28.30;99.00;;;;;;5073168;28;20037;-65
2022/07/03 11:58:58;;;;;;;1.67;1.00;;;28.30;98.10;;;;;;5073929;28;20044;-65
2022/07/03 12:01:25;;;;;;;1.73;1.30;;;28.30;99.70;;;;;;5070889;28;20067;-65
2022/07/03 12:04:07;;;;;;;3.03;1.30;;;28.60;99.20;;;;;;5064462;28;20048;-65
2022/07/03 12:06:56;;;;;;;1.35;1.23;;;28.50;98.00;;;;;;5071827;28;20451;-65
2022/07/03 12:09:33;;;;;;;2.28;1.00;;;28.50;98.50;;;;;;5072750;28;20492;-65
2022/07/03 12:12:05;;;;;;;3.10;1.40;;;28.40;97.20;;;;;;5065044;28;20451;-65
2022/07/03 12:14:36;;;;;;;2.20;1.08;;;28.40;97.20;;;;;;5067495;28;20032;-65
2022/07/03 12:17:04;;;;;;;3.53;1.20;;;28.50;97.90;;;;;;5073401;28;20047;-65
2022/07/03 12:19:31;;;;;;;1.35;1.00;;;28.60;98.10;;;;;;5072767;28;20165;-65
2022/07/03 12:21:57;;;;;;;3.40;1.02;;;28.60;98.40;;;;;;5062553;28;20052;-65
2022/07/03 12:24:24;;;;;;;1.85;1.08;;;28.50;96.40;;;;;;5065191;28;20041;-65
2022/07/03 12:26:51;;;;;;;1.08;0.98;;;28.50;97.10;;;;;;5069399;28;20051;-65
2022/07/03 12:29:18;;;;;;;1.40;1.23;;;28.40;97.10;;;;;;5066513;28;20037;-65
2022/07/03 12:31:48;;;;;;;3.53;1.10;;;28.50;97.90;;;;;;5068009;28;20485;-65
2022/07/03 12:34:16;;;;;;;3.60;1.10;;;28.60;96.90;;;;;;5068117;28;20488;-65
2022/07/03 12:36:57;;;;;;;1.40;1.10;;;28.70;97.00;;;;;;5066884;28;20047;-65
2022/07/03 12:39:41;;;;;;;1.15;1.05;;;28.70;96.30;;;;;;5066495;28;20064;-65
2022/07/03 12:42:22;;;;;;;3.05;1.17;;;28.50;95.70;;;;;;5072627;28;20043;-65
2022/07/03 12:45:02;;;;;;;2.78;1.27;;;28.50;95.10;;;;;;5071296;28;20040;-66
2022/07/03 12:47:31;;;;;;;1.45;1.10;;;28.50;95.00;;;;;;5065176;28;20067;-65
2022/07/03 12:50:00;;;;;;;1.73;1.10;;;28.50;95.60;;;;;;5065141;28;20048;-65
2022/07/03 12:52:29;;;;;;;1.02;0.80;;;28.50;94.60;;;;;;5070907;28;20133;-65
2022/07/03 12:54:56;;;;;;;1.30;1.20;;;28.70;95.80;;;;;;5064083;28;20040;-65
2022/07/03 13:00:17;;;;;;;1.20;1.10;;;28.70;94.70;;;;;;5065499;28;20044;-65
2022/07/03 13:02:46;;;;;;;1.17;1.08;;;28.80;95.30;;;;;;5072355;28;20047;-65
2022/07/03 13:05:20;;;;;;;2.83;1.05;;;29.00;95.00;;;;;;5070543;28;20507;-65
2022/07/03 13:07:50;;;;;;;0.90;0.90;;;28.90;94.60;;;;;;5073444;28;20044;-65
2022/07/03 13:10:18;;;;;;;1.08;0.98;;;29.00;95.00;;;;;;5055412;28;20048;-65
2022/07/03 13:12:54;;;;;;;2.95;0.90;;;29.10;94.20;;;;;;5067477;28;20469;-65
2022/07/03 13:15:26;;;;;;;0.93;0.90;;;29.00;92.90;;;;;;5073415;28;20044;-65
2022/07/03 13:17:58;;;;;;;1.83;1.10;;;29.00;93.30;;;;;;5073226;28;20052;-65